GLO1193 SBPJ-SBBR
Flight info
| Callsign | GLO1193 |
|---|---|
| Flight time | 0h 57m |
| Altitude | 35000 |
| Route | EGDOD UZ26 PADIL |
| Aircraft | B738/M-SDFGIKLORWXY/LB1 |
Departure
| Time | 2026-04-24 12:58 |
|---|---|
| Airport | Brigadeiro Lysias Rodrigues Airport (SBPJ) |
Arrival
| Time | 2026-04-24 13:55 |
|---|---|
| Airport | Presidente Juscelino Kubitschek International Airport (SBBR) |
| Time | Latitude | Longitude | Altitude | Speed | Heading |
|---|---|---|---|---|---|
| 2026-04-24 12:45 | -10.29489 | -48.35728 | 749 ft | 0 kts | 214° |
| 2026-04-24 12:49 | -10.29485 | -48.35725 | 749 ft | 3 kts | 214° |
| 2026-04-24 12:49 | -10.29468 | -48.35712 | 749 ft | 3 kts | 220° |
| 2026-04-24 12:50 | -10.29452 | -48.35696 | 749 ft | 3 kts | 240° |
| 2026-04-24 12:50 | -10.29448 | -48.35680 | 749 ft | 3 kts | 294° |
| 2026-04-24 12:50 | -10.29450 | -48.35675 | 749 ft | 0 kts | 303° |
| 2026-04-24 12:53 | -10.29447 | -48.35680 | 749 ft | 2 kts | 303° |
| 2026-04-24 12:53 | -10.29430 | -48.35704 | 749 ft | 6 kts | 303° |
| 2026-04-24 12:53 | -10.29401 | -48.35749 | 747 ft | 9 kts | 303° |
| 2026-04-24 12:53 | -10.29357 | -48.35808 | 746 ft | 12 kts | 326° |
| 2026-04-24 12:54 | -10.29278 | -48.35786 | 748 ft | 14 kts | 31° |
| 2026-04-24 12:54 | -10.29190 | -48.35730 | 747 ft | 16 kts | 28° |
| 2026-04-24 12:54 | -10.29100 | -48.35789 | 745 ft | 18 kts | 303° |
| 2026-04-24 12:54 | -10.29029 | -48.35897 | 747 ft | 18 kts | 303° |
| 2026-04-24 12:55 | -10.28960 | -48.36005 | 747 ft | 18 kts | 303° |
| 2026-04-24 12:55 | -10.28894 | -48.36109 | 749 ft | 17 kts | 303° |
| 2026-04-24 12:55 | -10.28830 | -48.36209 | 746 ft | 17 kts | 302° |
| 2026-04-24 12:55 | -10.28768 | -48.36306 | 751 ft | 16 kts | 305° |
| 2026-04-24 12:56 | -10.28706 | -48.36396 | 752 ft | 15 kts | 305° |
| 2026-04-24 12:56 | -10.28645 | -48.36483 | 750 ft | 15 kts | 305° |
| 2026-04-24 12:56 | -10.28590 | -48.36567 | 748 ft | 14 kts | 288° |
| 2026-04-24 12:56 | -10.28559 | -48.36636 | 748 ft | 9 kts | 20° |
| 2026-04-24 12:57 | -10.28559 | -48.36614 | 750 ft | 3 kts | 117° |
| 2026-04-24 12:57 | -10.28572 | -48.36590 | 748 ft | 6 kts | 117° |
| 2026-04-24 12:57 | -10.28680 | -48.36422 | 750 ft | 63 kts | 124° |
| 2026-04-24 12:57 | -10.29061 | -48.35841 | 747 ft | 132 kts | 123° |
| 2026-04-24 12:58 | -10.29454 | -48.35254 | 753 ft | 170 kts | 126° |
| 2026-04-24 12:58 | -10.30165 | -48.34231 | 1424 ft | 170 kts | 126° |
| 2026-04-24 12:58 | -10.30834 | -48.33279 | 2378 ft | 167 kts | 126° |
| 2026-04-24 12:58 | -10.31506 | -48.32241 | 2903 ft | 188 kts | 125° |
| 2026-04-24 12:59 | -10.32270 | -48.31037 | 3193 ft | 216 kts | 124° |
| 2026-04-24 12:59 | -10.33127 | -48.29704 | 3599 ft | 232 kts | 124° |
| 2026-04-24 12:59 | -10.34028 | -48.28311 | 3880 ft | 253 kts | 122° |
| 2026-04-24 12:59 | -10.35169 | -48.26829 | 4555 ft | 266 kts | 139° |
| 2026-04-24 13:00 | -10.36817 | -48.26024 | 5466 ft | 271 kts | 163° |
| 2026-04-24 13:00 | -10.38743 | -48.25827 | 6340 ft | 277 kts | 173° |
| 2026-04-24 13:00 | -10.40667 | -48.25764 | 7112 ft | 282 kts | 174° |
| 2026-04-24 13:00 | -10.42644 | -48.25710 | 7882 ft | 286 kts | 175° |
| 2026-04-24 13:01 | -10.44636 | -48.25647 | 8698 ft | 288 kts | 174° |
| 2026-04-24 13:01 | -10.46653 | -48.25573 | 9422 ft | 292 kts | 174° |
| 2026-04-24 13:01 | -10.48699 | -48.25490 | 10171 ft | 295 kts | 175° |
| 2026-04-24 13:01 | -10.50803 | -48.25400 | 10540 ft | 314 kts | 175° |
| 2026-04-24 13:02 | -10.53071 | -48.25413 | 10685 ft | 339 kts | 187° |
| 2026-04-24 13:02 | -10.55384 | -48.26138 | 11073 ft | 354 kts | 194° |
| 2026-04-24 13:02 | -10.57775 | -48.26636 | 11605 ft | 358 kts | 186° |
| 2026-04-24 13:02 | -10.60259 | -48.26947 | 12245 ft | 362 kts | 185° |
| 2026-04-24 13:03 | -10.62778 | -48.27228 | 12909 ft | 365 kts | 185° |
| 2026-04-24 13:03 | -10.65313 | -48.27531 | 13579 ft | 368 kts | 186° |
| 2026-04-24 13:03 | -10.67864 | -48.27866 | 14174 ft | 372 kts | 186° |
| 2026-04-24 13:03 | -10.70451 | -48.28230 | 14756 ft | 376 kts | 187° |
| 2026-04-24 13:04 | -10.73057 | -48.28613 | 15339 ft | 380 kts | 187° |
| 2026-04-24 13:04 | -10.75688 | -48.29008 | 15916 ft | 383 kts | 187° |
| 2026-04-24 13:04 | -10.78335 | -48.29410 | 16494 ft | 386 kts | 187° |
| 2026-04-24 13:04 | -10.81011 | -48.29818 | 17037 ft | 390 kts | 187° |
| 2026-04-24 13:05 | -10.83711 | -48.30229 | 17571 ft | 394 kts | 188° |
| 2026-04-24 13:05 | -10.86396 | -48.30638 | 18092 ft | 397 kts | 188° |
| 2026-04-24 13:05 | -10.89152 | -48.31058 | 18614 ft | 400 kts | 187° |
| 2026-04-24 13:05 | -10.91921 | -48.31479 | 19110 ft | 404 kts | 187° |
| 2026-04-24 13:06 | -10.94711 | -48.31903 | 19594 ft | 407 kts | 187° |
| 2026-04-24 13:06 | -10.97532 | -48.32148 | 20046 ft | 408 kts | 178° |
| 2026-04-24 13:06 | -11.00373 | -48.32002 | 20516 ft | 410 kts | 174° |
| 2026-04-24 13:06 | -11.03233 | -48.31760 | 20986 ft | 413 kts | 173° |
| 2026-04-24 13:07 | -11.06099 | -48.31506 | 21441 ft | 415 kts | 173° |
| 2026-04-24 13:07 | -11.08989 | -48.31267 | 21870 ft | 418 kts | 173° |
| 2026-04-24 13:07 | -11.11895 | -48.31050 | 22283 ft | 420 kts | 173° |
| 2026-04-24 13:07 | -11.14826 | -48.30846 | 22668 ft | 423 kts | 173° |
| 2026-04-24 13:08 | -11.17735 | -48.30652 | 23063 ft | 425 kts | 173° |
| 2026-04-24 13:08 | -11.20696 | -48.30456 | 23459 ft | 427 kts | 173° |
| 2026-04-24 13:08 | -11.23675 | -48.30260 | 23834 ft | 430 kts | 173° |
| 2026-04-24 13:09 | -11.29679 | -48.29863 | 24546 ft | 434 kts | 173° |
| 2026-04-24 13:09 | -11.32705 | -48.29730 | 24888 ft | 437 kts | 175° |
| 2026-04-24 13:09 | -11.35759 | -48.29651 | 25216 ft | 439 kts | 175° |
| 2026-04-24 13:09 | -11.38827 | -48.29589 | 25527 ft | 442 kts | 175° |
| 2026-04-24 13:10 | -11.41910 | -48.29525 | 25848 ft | 444 kts | 175° |
| 2026-04-24 13:10 | -11.45006 | -48.29454 | 26161 ft | 446 kts | 175° |
| 2026-04-24 13:10 | -11.48117 | -48.29374 | 26477 ft | 448 kts | 175° |
| 2026-04-24 13:10 | -11.51240 | -48.29289 | 26792 ft | 449 kts | 174° |
| 2026-04-24 13:11 | -11.54367 | -48.29203 | 27106 ft | 451 kts | 174° |
| 2026-04-24 13:11 | -11.57506 | -48.29115 | 27411 ft | 452 kts | 174° |
| 2026-04-24 13:11 | -11.60669 | -48.29027 | 27688 ft | 454 kts | 174° |
| 2026-04-24 13:11 | -11.63800 | -48.28940 | 27945 ft | 456 kts | 174° |
| 2026-04-24 13:12 | -11.66989 | -48.28852 | 28219 ft | 458 kts | 174° |
| 2026-04-24 13:12 | -11.70177 | -48.28765 | 28498 ft | 459 kts | 174° |
| 2026-04-24 13:12 | -11.73387 | -48.28678 | 28758 ft | 461 kts | 174° |
| 2026-04-24 13:12 | -11.76597 | -48.28592 | 29004 ft | 463 kts | 174° |
| 2026-04-24 13:13 | -11.79827 | -48.28506 | 29241 ft | 465 kts | 174° |
| 2026-04-24 13:13 | -11.83068 | -48.28421 | 29479 ft | 466 kts | 174° |
| 2026-04-24 13:13 | -11.86314 | -48.28336 | 29713 ft | 468 kts | 173° |
| 2026-04-24 13:13 | -11.89575 | -48.28249 | 29948 ft | 469 kts | 173° |
| 2026-04-24 13:14 | -11.92840 | -48.28162 | 30188 ft | 470 kts | 173° |
| 2026-04-24 13:14 | -11.96111 | -48.28076 | 30513 ft | 469 kts | 174° |
| 2026-04-24 13:14 | -11.99334 | -48.27991 | 30834 ft | 469 kts | 174° |
| 2026-04-24 13:14 | -12.02592 | -48.27904 | 31128 ft | 469 kts | 174° |
| 2026-04-24 13:15 | -12.05856 | -48.27818 | 31422 ft | 469 kts | 174° |
| 2026-04-24 13:15 | -12.09119 | -48.27731 | 31701 ft | 469 kts | 174° |
| 2026-04-24 13:15 | -12.12379 | -48.27644 | 31973 ft | 469 kts | 174° |
| 2026-04-24 13:15 | -12.15643 | -48.27557 | 32285 ft | 468 kts | 174° |
| 2026-04-24 13:16 | -12.18902 | -48.27470 | 32593 ft | 468 kts | 174° |
| 2026-04-24 13:16 | -12.22158 | -48.27384 | 32868 ft | 468 kts | 175° |
| 2026-04-24 13:16 | -12.25426 | -48.27296 | 33105 ft | 469 kts | 175° |
| 2026-04-24 13:16 | -12.28683 | -48.27209 | 33380 ft | 468 kts | 175° |
| 2026-04-24 13:17 | -12.31935 | -48.27123 | 33671 ft | 467 kts | 175° |
| 2026-04-24 13:17 | -12.35194 | -48.27036 | 33935 ft | 467 kts | 175° |
| 2026-04-24 13:17 | -12.38404 | -48.26950 | 34165 ft | 468 kts | 175° |
| 2026-04-24 13:17 | -12.41661 | -48.26863 | 34466 ft | 467 kts | 175° |
| 2026-04-24 13:18 | -12.44907 | -48.26827 | 34799 ft | 466 kts | 180° |
| 2026-04-24 13:18 | -12.48137 | -48.27125 | 35098 ft | 467 kts | 184° |
| 2026-04-24 13:18 | -12.54630 | -48.28101 | 35140 ft | 475 kts | 186° |
| 2026-04-24 13:19 | -12.61219 | -48.29150 | 35152 ft | 482 kts | 186° |
| 2026-04-24 13:19 | -12.67910 | -48.30139 | 35145 ft | 487 kts | 185° |
| 2026-04-24 13:20 | -12.74635 | -48.31086 | 35140 ft | 488 kts | 185° |
| 2026-04-24 13:20 | -12.81371 | -48.32021 | 35146 ft | 488 kts | 185° |
| 2026-04-24 13:21 | -12.88053 | -48.32952 | 35157 ft | 487 kts | 185° |
| 2026-04-24 13:21 | -12.94772 | -48.33890 | 35153 ft | 486 kts | 185° |
| 2026-04-24 13:22 | -13.01464 | -48.34828 | 35161 ft | 484 kts | 185° |
| 2026-04-24 13:22 | -13.08143 | -48.35766 | 35168 ft | 483 kts | 185° |
| 2026-04-24 13:23 | -13.14802 | -48.36700 | 35171 ft | 482 kts | 185° |
| 2026-04-24 13:23 | -13.21444 | -48.37631 | 35177 ft | 481 kts | 185° |
| 2026-04-24 13:24 | -13.28041 | -48.38557 | 35186 ft | 481 kts | 184° |
| 2026-04-24 13:24 | -13.34661 | -48.39487 | 35188 ft | 480 kts | 184° |
| 2026-04-24 13:25 | -13.41291 | -48.40420 | 35193 ft | 480 kts | 184° |
| 2026-04-24 13:25 | -13.47908 | -48.41349 | 35191 ft | 480 kts | 184° |
| 2026-04-24 13:26 | -13.54526 | -48.42280 | 35200 ft | 480 kts | 184° |
| 2026-04-24 13:26 | -13.61143 | -48.43212 | 35208 ft | 480 kts | 184° |
| 2026-04-24 13:27 | -13.67764 | -48.44144 | 35201 ft | 481 kts | 184° |
| 2026-04-24 13:27 | -13.74388 | -48.45076 | 35210 ft | 480 kts | 184° |
| 2026-04-24 13:28 | -13.81013 | -48.46010 | 35211 ft | 480 kts | 184° |
| 2026-04-24 13:28 | -13.87624 | -48.46942 | 35213 ft | 480 kts | 184° |
| 2026-04-24 13:29 | -13.94207 | -48.47872 | 35214 ft | 480 kts | 184° |
| 2026-04-24 13:29 | -14.00826 | -48.48807 | 35218 ft | 480 kts | 184° |
| 2026-04-24 13:30 | -14.07451 | -48.49744 | 35218 ft | 480 kts | 184° |
| 2026-04-24 13:30 | -14.14074 | -48.50681 | 35225 ft | 480 kts | 184° |
| 2026-04-24 13:31 | -14.17420 | -48.51152 | 34586 ft | 488 kts | 184° |
| 2026-04-24 13:31 | -14.20784 | -48.51607 | 33915 ft | 486 kts | 184° |
| 2026-04-24 13:31 | -14.24136 | -48.52049 | 33221 ft | 486 kts | 184° |
| 2026-04-24 13:31 | -14.27494 | -48.52488 | 32465 ft | 486 kts | 184° |
| 2026-04-24 13:32 | -14.30847 | -48.52925 | 31847 ft | 484 kts | 184° |
| 2026-04-24 13:32 | -14.34175 | -48.53362 | 31328 ft | 480 kts | 184° |
| 2026-04-24 13:32 | -14.37430 | -48.53791 | 30796 ft | 476 kts | 184° |
| 2026-04-24 13:32 | -14.40696 | -48.54223 | 30266 ft | 472 kts | 184° |
| 2026-04-24 13:33 | -14.43945 | -48.54653 | 29729 ft | 468 kts | 184° |
| 2026-04-24 13:33 | -14.47165 | -48.55080 | 29190 ft | 464 kts | 184° |
| 2026-04-24 13:33 | -14.50356 | -48.55502 | 28657 ft | 460 kts | 184° |
| 2026-04-24 13:33 | -14.53521 | -48.55921 | 28118 ft | 456 kts | 184° |
| 2026-04-24 13:34 | -14.56660 | -48.56337 | 27587 ft | 453 kts | 184° |
| 2026-04-24 13:34 | -14.59773 | -48.56750 | 27060 ft | 449 kts | 184° |
| 2026-04-24 13:34 | -14.62856 | -48.57159 | 26532 ft | 445 kts | 184° |
| 2026-04-24 13:34 | -14.65923 | -48.57566 | 26015 ft | 441 kts | 184° |
| 2026-04-24 13:35 | -14.68960 | -48.57969 | 25494 ft | 438 kts | 184° |
| 2026-04-24 13:35 | -14.71968 | -48.58368 | 24975 ft | 434 kts | 184° |
| 2026-04-24 13:35 | -14.74950 | -48.58763 | 24467 ft | 431 kts | 184° |
| 2026-04-24 13:35 | -14.77879 | -48.59152 | 23960 ft | 428 kts | 184° |
| 2026-04-24 13:36 | -14.80828 | -48.59543 | 23464 ft | 425 kts | 184° |
| 2026-04-24 13:36 | -14.83745 | -48.59930 | 22953 ft | 421 kts | 185° |
| 2026-04-24 13:36 | -14.86674 | -48.60320 | 22448 ft | 418 kts | 185° |
| 2026-04-24 13:36 | -14.89560 | -48.60703 | 21948 ft | 416 kts | 185° |
| 2026-04-24 13:37 | -14.92380 | -48.61079 | 21461 ft | 413 kts | 185° |
| 2026-04-24 13:37 | -14.95255 | -48.61460 | 20966 ft | 409 kts | 185° |
| 2026-04-24 13:37 | -14.98032 | -48.61829 | 20486 ft | 406 kts | 185° |
| 2026-04-24 13:37 | -15.00830 | -48.62155 | 19995 ft | 402 kts | 179° |
| 2026-04-24 13:38 | -15.03553 | -48.61799 | 19528 ft | 394 kts | 161° |
| 2026-04-24 13:38 | -15.06057 | -48.60698 | 19086 ft | 388 kts | 152° |
| 2026-04-24 13:38 | -15.08468 | -48.59442 | 18604 ft | 386 kts | 151° |
| 2026-04-24 13:38 | -15.10840 | -48.58173 | 18138 ft | 383 kts | 151° |
| 2026-04-24 13:39 | -15.13200 | -48.56910 | 17673 ft | 380 kts | 151° |
| 2026-04-24 13:39 | -15.15550 | -48.55662 | 17198 ft | 378 kts | 152° |
| 2026-04-24 13:39 | -15.17892 | -48.54429 | 16743 ft | 376 kts | 152° |
| 2026-04-24 13:39 | -15.20215 | -48.53214 | 16288 ft | 373 kts | 152° |
| 2026-04-24 13:40 | -15.22525 | -48.52010 | 15832 ft | 371 kts | 152° |
| 2026-04-24 13:40 | -15.24799 | -48.50828 | 15384 ft | 369 kts | 153° |
| 2026-04-24 13:40 | -15.27084 | -48.49641 | 14936 ft | 367 kts | 153° |
| 2026-04-24 13:40 | -15.29360 | -48.48458 | 14485 ft | 365 kts | 153° |
| 2026-04-24 13:41 | -15.31621 | -48.47282 | 14033 ft | 362 kts | 153° |
| 2026-04-24 13:41 | -15.33870 | -48.46115 | 13589 ft | 360 kts | 153° |
| 2026-04-24 13:41 | -15.36105 | -48.44954 | 13151 ft | 359 kts | 153° |
| 2026-04-24 13:41 | -15.38331 | -48.43798 | 12701 ft | 358 kts | 153° |
| 2026-04-24 13:42 | -15.40559 | -48.42638 | 12248 ft | 357 kts | 154° |
| 2026-04-24 13:42 | -15.42773 | -48.41487 | 11808 ft | 356 kts | 154° |
| 2026-04-24 13:42 | -15.44986 | -48.40334 | 11380 ft | 354 kts | 153° |
| 2026-04-24 13:42 | -15.47178 | -48.39195 | 11069 ft | 349 kts | 153° |
| 2026-04-24 13:43 | -15.49317 | -48.38081 | 10913 ft | 339 kts | 153° |
| 2026-04-24 13:43 | -15.51394 | -48.36997 | 10773 ft | 330 kts | 153° |
| 2026-04-24 13:43 | -15.53419 | -48.35941 | 10623 ft | 321 kts | 153° |
| 2026-04-24 13:43 | -15.55397 | -48.34913 | 10474 ft | 315 kts | 153° |
| 2026-04-24 13:44 | -15.57329 | -48.33908 | 10343 ft | 306 kts | 152° |
| 2026-04-24 13:44 | -15.59207 | -48.32930 | 10231 ft | 298 kts | 152° |
| 2026-04-24 13:44 | -15.61019 | -48.31990 | 10060 ft | 293 kts | 152° |
| 2026-04-24 13:44 | -15.62820 | -48.31060 | 9863 ft | 287 kts | 152° |
| 2026-04-24 13:45 | -15.64593 | -48.30143 | 9718 ft | 283 kts | 152° |
| 2026-04-24 13:45 | -15.66348 | -48.29236 | 9564 ft | 281 kts | 152° |
| 2026-04-24 13:45 | -15.68096 | -48.28336 | 9422 ft | 278 kts | 151° |
| 2026-04-24 13:45 | -15.69813 | -48.27448 | 9234 ft | 273 kts | 151° |
| 2026-04-24 13:46 | -15.71496 | -48.26577 | 9086 ft | 268 kts | 151° |
| 2026-04-24 13:46 | -15.73151 | -48.25722 | 8937 ft | 262 kts | 150° |
| 2026-04-24 13:46 | -15.74225 | -48.25167 | 8839 ft | 258 kts | 150° |
| 2026-04-24 13:46 | -15.76329 | -48.24086 | 8636 ft | 252 kts | 150° |
| 2026-04-24 13:47 | -15.77882 | -48.23281 | 8498 ft | 247 kts | 152° |
| 2026-04-24 13:47 | -15.78989 | -48.22928 | 8363 ft | 249 kts | 173° |
| 2026-04-24 13:47 | -15.80690 | -48.23139 | 8296 ft | 245 kts | 189° |
| 2026-04-24 13:47 | -15.82319 | -48.23454 | 8171 ft | 237 kts | 187° |
| 2026-04-24 13:48 | -15.83921 | -48.23682 | 8016 ft | 227 kts | 182° |
| 2026-04-24 13:48 | -15.85450 | -48.23779 | 7872 ft | 214 kts | 174° |
| 2026-04-24 13:48 | -15.86825 | -48.23384 | 7581 ft | 201 kts | 141° |
| 2026-04-24 13:48 | -15.87715 | -48.22349 | 7448 ft | 191 kts | 113° |
| 2026-04-24 13:49 | -15.88040 | -48.21049 | 7320 ft | 183 kts | 90° |
| 2026-04-24 13:49 | -15.88022 | -48.19729 | 7205 ft | 184 kts | 85° |
| 2026-04-24 13:49 | -15.87960 | -48.18403 | 7095 ft | 184 kts | 85° |
| 2026-04-24 13:49 | -15.87897 | -48.17069 | 7000 ft | 186 kts | 85° |
| 2026-04-24 13:50 | -15.87830 | -48.15737 | 6885 ft | 184 kts | 84° |
| 2026-04-24 13:50 | -15.87751 | -48.14419 | 6759 ft | 180 kts | 84° |
| 2026-04-24 13:50 | -15.87666 | -48.13134 | 6659 ft | 178 kts | 84° |
| 2026-04-24 13:50 | -15.87582 | -48.11853 | 6561 ft | 177 kts | 84° |
| 2026-04-24 13:51 | -15.87498 | -48.10593 | 6457 ft | 178 kts | 84° |
| 2026-04-24 13:51 | -15.87416 | -48.09318 | 6355 ft | 175 kts | 84° |
| 2026-04-24 13:51 | -15.87344 | -48.08097 | 6280 ft | 165 kts | 84° |
| 2026-04-24 13:51 | -15.87270 | -48.06906 | 6095 ft | 165 kts | 84° |
| 2026-04-24 13:52 | -15.87196 | -48.05749 | 5916 ft | 159 kts | 84° |
| 2026-04-24 13:52 | -15.87123 | -48.04612 | 5699 ft | 157 kts | 84° |
| 2026-04-24 13:52 | -15.87050 | -48.03498 | 5501 ft | 155 kts | 85° |
| 2026-04-24 13:52 | -15.86976 | -48.02378 | 5297 ft | 156 kts | 86° |
| 2026-04-24 13:53 | -15.86903 | -48.01236 | 5092 ft | 160 kts | 86° |
| 2026-04-24 13:53 | -15.86830 | -48.00086 | 4847 ft | 159 kts | 86° |
| 2026-04-24 13:53 | -15.86756 | -47.98954 | 4654 ft | 157 kts | 86° |
| 2026-04-24 13:53 | -15.86684 | -47.97818 | 4457 ft | 158 kts | 86° |
| 2026-04-24 13:54 | -15.86610 | -47.96683 | 4241 ft | 157 kts | 86° |
| 2026-04-24 13:54 | -15.86537 | -47.95550 | 4026 ft | 157 kts | 86° |
| 2026-04-24 13:54 | -15.86464 | -47.94428 | 3833 ft | 157 kts | 86° |
| 2026-04-24 13:54 | -15.86388 | -47.93278 | 3601 ft | 162 kts | 85° |
| 2026-04-24 13:55 | -15.86317 | -47.92123 | 3466 ft | 149 kts | 86° |
| 2026-04-24 13:55 | -15.86264 | -47.91278 | 3463 ft | 89 kts | 86° |
| 2026-04-24 13:55 | -15.86260 | -47.90849 | 3474 ft | 28 kts | 126° |
| 2026-04-24 13:55 | -15.86335 | -47.90757 | 3481 ft | 15 kts | 131° |
| 2026-04-24 13:56 | -15.86409 | -47.90725 | 3483 ft | 10 kts | 223° |
| 2026-04-24 13:56 | -15.86424 | -47.90794 | 3481 ft | 10 kts | 266° |
| 2026-04-24 13:56 | -15.86429 | -47.90874 | 3479 ft | 12 kts | 266° |
| 2026-04-24 13:56 | -15.86435 | -47.90970 | 3475 ft | 14 kts | 266° |
| 2026-04-24 13:57 | -15.86443 | -47.91075 | 3470 ft | 15 kts | 265° |
| 2026-04-24 13:57 | -15.86450 | -47.91183 | 3469 ft | 14 kts | 266° |
| 2026-04-24 13:57 | -15.86456 | -47.91281 | 3468 ft | 13 kts | 266° |
| 2026-04-24 13:57 | -15.86463 | -47.91375 | 3466 ft | 13 kts | 266° |
| 2026-04-24 13:58 | -15.86470 | -47.91475 | 3464 ft | 14 kts | 265° |
| 2026-04-24 13:58 | -15.86479 | -47.91578 | 3464 ft | 14 kts | 264° |
| 2026-04-24 13:58 | -15.86488 | -47.91678 | 3466 ft | 13 kts | 264° |
| 2026-04-24 13:58 | -15.86498 | -47.91773 | 3466 ft | 13 kts | 263° |
| 2026-04-24 13:59 | -15.86568 | -47.91808 | 3469 ft | 13 kts | 186° |
| 2026-04-24 13:59 | -15.86635 | -47.91849 | 3470 ft | 11 kts | 186° |
| 2026-04-24 13:59 | -15.86674 | -47.91849 | 3471 ft | 3 kts | 166° |
| 2026-04-24 13:59 | -15.86695 | -47.91845 | 3470 ft | 3 kts | 173° |
| 2026-04-24 14:00 | -15.86707 | -47.91844 | 3471 ft | 0 kts | 175° |